KASTKHQM

Guest
Details From KAST - Astoria Rgnl
To KHQM - BOWERMAN
Flight Number -
Tags generated
Created
Modified
Stats Distance 49 nm / 91 km
Max Altitude 0 ft / 0 m
Waypoints 3
Social Downloads 0
Likes 0
Share VATSIM

Download

Looking for another format? Having issues loading an existing format? Contact us
Advertisement - Login to hide

Notes

Basic altitude profile: - Ascent Rate: 2500ft/min - Ascent Speed: 250kts - Cruise Altitude: 35000ft - Cruise Speed: 420kts - Descent Rate: 1500ft/min - Descent Speed: 250kts Options: - Use NATs: no - Use PACOTS: no - Use low airways: yes - Use high airways: no

Route

KAST AST KHQM

ID Type Via Altitude Latitude Longitude Leg Dist Tot Dist Heading (true) Name
O KAST APT - 0 ft / 0 m 46.15789˚ -123.87872˚ - 0 nm - Astoria Rgnl
AST VOR - 0 ft / 0 m 46.16169˚ -123.88039˚ 0 nm 0 nm 343° / 343° ASTORIA VOR-DME
O KHQM APT - 0 ft / 0 m 46.97120˚ -123.93656˚ 48 nm 48 nm 357° / 357° BOWERMAN

Altitude Profile

Advertisement - Login to hide

KAST

Details ICAO KAST (AST)
Name Astoria Rgnl
Region United States
Timezone America/Los_Angeles (UTC-8.0)
Stats Elevation 15 ft / 5 m (AMSL)
Location 46.157894° -123.878724°
Runways 2
Magnetic Variation 15.634° E

METAR

KAST 181115Z AUTO 22010G17KT 2 1/2SM -RA BR OVC004 11/11 A3007

Decode

TAF

TAF AMD KAST 180639Z 1807/1906 21015G25KT 2SM -RADZ BR OVC008 FM181200 23011KT 5SM -RA BR OVC011 FM190100 18010KT 2SM -RA BR OVC008

Decode

Departure Runways

ID Width Length Bearing (true) Bearing (mag) Surface Threshold Offset Overrun Length
08 98 ft / 30 m 5,779 ft / 1,762 m 95.49° 79.86° Asphalt 302 ft / 92 m 0 ft / 0 m
13 98 ft / 30 m 4,997 ft / 1,523 m 153.70° 138.07° Asphalt 328 ft / 100 m 0 ft / 0 m
26 98 ft / 30 m 5,779 ft / 1,762 m 275.51° 259.88° Asphalt 705 ft / 215 m 0 ft / 0 m
31 98 ft / 30 m 4,997 ft / 1,523 m 333.70° 318.07° Asphalt 203 ft / 62 m 0 ft / 0 m

KHQM

Details ICAO KHQM
Name BOWERMAN
Region United States
Timezone America/Los_Angeles (UTC-8.0)
Stats Elevation 18 ft / 5 m (AMSL)
Location 46.971196° -123.936564°
Runways 1
Magnetic Variation 15.839° E

METAR

KHQM 181110Z AUTO 24014KT 2SM -RA BR SCT005 OVC011 10/10 A3002 RMK AO2 P0000 T01000100

Decode

TAF

KHQM 180903Z 1809/1906 21015KT 3SM -RA BR OVC004 FM181600 22010KT 6SM BR OVC010 FM190300 08005KT 3SM -RA BR OVC007

Decode

Destination Runways

ID Width Length Bearing (true) Bearing (mag) Surface Threshold Offset Overrun Length
06 151 ft / 46 m 4,987 ft / 1,520 m 79.79° 63.95° Asphalt 0 ft / 0 m 0 ft / 0 m
24 151 ft / 46 m 4,987 ft / 1,520 m 259.81° 243.97° Asphalt 0 ft / 0 m 0 ft / 0 m

Approach Navaids

Runway Type Ident Frequency Range Bearing (true) Bearing (mag) Slope Elevation
24 Localiser IHQM 108.70 MHz 18 nm / 33 km 259.79° 243.95° - 18 ft / 5 m (AMSL)
24 Glidescope IHQM 108.70 MHz 10 nm / 19 km 259.80° 243.96° 3.00° 18 ft / 5 m (AMSL)
24 DME IHQM 108.70 MHz 18 nm / 33 km - - - 18 ft / 5 m (AMSL)

Popular Alternatives